sensor_id;sensor_type;location;lat;lon;timestamp;P1;durP1;ratioP1;P2;durP2;ratioP2
70505;SDS011;58032;49.820;6.274;2023-02-15T00:01:19;34.50;;;13.10;;
70505;SDS011;58032;49.820;6.274;2023-02-15T00:03:49;30.43;;;12.47;;
70505;SDS011;58032;49.820;6.274;2023-02-15T00:06:17;30.00;;;12.43;;
70505;SDS011;58032;49.820;6.274;2023-02-15T00:08:43;38.92;;;13.65;;
70505;SDS011;58032;49.820;6.274;2023-02-15T00:11:12;31.98;;;13.32;;
70505;SDS011;58032;49.820;6.274;2023-02-15T00:13:39;29.60;;;12.35;;
70505;SDS011;58032;49.820;6.274;2023-02-15T00:16:10;32.67;;;14.20;;
70505;SDS011;58032;49.820;6.274;2023-02-15T00:18:40;38.83;;;14.73;;
70505;SDS011;58032;49.820;6.274;2023-02-15T00:21:08;35.05;;;14.45;;
70505;SDS011;58032;49.820;6.274;2023-02-15T00:23:35;36.25;;;14.63;;
70505;SDS011;58032;49.820;6.274;2023-02-15T00:26:12;37.58;;;14.80;;
70505;SDS011;58032;49.820;6.274;2023-02-15T00:28:41;36.30;;;14.57;;
70505;SDS011;58032;49.820;6.274;2023-02-15T00:31:09;38.00;;;14.82;;
70505;SDS011;58032;49.820;6.274;2023-02-15T00:33:36;38.90;;;14.25;;
70505;SDS011;58032;49.820;6.274;2023-02-15T00:36:04;33.13;;;13.40;;
70505;SDS011;58032;49.820;6.274;2023-02-15T00:38:31;32.95;;;12.18;;
70505;SDS011;58032;49.820;6.274;2023-02-15T00:40:59;33.50;;;12.77;;
70505;SDS011;58032;49.820;6.274;2023-02-15T00:43:27;31.95;;;12.85;;
70505;SDS011;58032;49.820;6.274;2023-02-15T00:45:54;33.50;;;12.93;;
70505;SDS011;58032;49.820;6.274;2023-02-15T00:48:21;36.53;;;12.98;;
70505;SDS011;58032;49.820;6.274;2023-02-15T00:50:52;36.45;;;14.68;;
70505;SDS011;58032;49.820;6.274;2023-02-15T00:53:19;36.10;;;13.93;;
70505;SDS011;58032;49.820;6.274;2023-02-15T00:55:46;29.45;;;12.48;;
70505;SDS011;58032;49.820;6.274;2023-02-15T00:58:13;37.22;;;13.10;;
70505;SDS011;58032;49.820;6.274;2023-02-15T01:00:40;38.00;;;13.90;;
70505;SDS011;58032;49.820;6.274;2023-02-15T01:03:08;38.33;;;13.98;;
70505;SDS011;58032;49.820;6.274;2023-02-15T01:05:35;33.57;;;13.27;;
70505;SDS011;58032;49.820;6.274;2023-02-15T01:08:03;27.00;;;11.88;;
70505;SDS011;58032;49.820;6.274;2023-02-15T01:10:30;33.30;;;13.13;;
70505;SDS011;58032;49.820;6.274;2023-02-15T01:12:56;28.08;;;12.63;;
70505;SDS011;58032;49.820;6.274;2023-02-15T01:15:23;32.80;;;13.52;;
70505;SDS011;58032;49.820;6.274;2023-02-15T01:17:51;30.80;;;12.27;;
70505;SDS011;58032;49.820;6.274;2023-02-15T01:20:21;26.73;;;12.43;;
70505;SDS011;58032;49.820;6.274;2023-02-15T01:22:49;29.83;;;13.10;;
70505;SDS011;58032;49.820;6.274;2023-02-15T01:25:16;31.80;;;13.52;;
70505;SDS011;58032;49.820;6.274;2023-02-15T01:27:43;33.92;;;14.20;;
70505;SDS011;58032;49.820;6.274;2023-02-15T01:30:12;35.43;;;13.43;;
70505;SDS011;58032;49.820;6.274;2023-02-15T01:32:39;34.38;;;13.75;;
70505;SDS011;58032;49.820;6.274;2023-02-15T01:35:07;37.00;;;14.63;;
70505;SDS011;58032;49.820;6.274;2023-02-15T01:37:34;34.72;;;14.25;;
70505;SDS011;58032;49.820;6.274;2023-02-15T01:40:01;32.17;;;13.85;;
70505;SDS011;58032;49.820;6.274;2023-02-15T01:42:29;31.83;;;13.40;;
70505;SDS011;58032;49.820;6.274;2023-02-15T01:45:03;28.33;;;12.52;;
70505;SDS011;58032;49.820;6.274;2023-02-15T01:47:34;29.95;;;12.98;;
70505;SDS011;58032;49.820;6.274;2023-02-15T01:50:19;37.70;;;13.48;;
70505;SDS011;58032;49.820;6.274;2023-02-15T01:52:51;36.15;;;14.35;;
70505;SDS011;58032;49.820;6.274;2023-02-15T01:55:19;35.27;;;14.23;;
70505;SDS011;58032;49.820;6.274;2023-02-15T01:57:47;42.50;;;16.35;;
70505;SDS011;58032;49.820;6.274;2023-02-15T02:00:14;33.00;;;13.68;;
70505;SDS011;58032;49.820;6.274;2023-02-15T02:02:49;29.17;;;12.55;;
70505;SDS011;58032;49.820;6.274;2023-02-15T02:05:17;40.63;;;14.38;;
70505;SDS011;58032;49.820;6.274;2023-02-15T02:07:44;26.87;;;12.67;;
70505;SDS011;58032;49.820;6.274;2023-02-15T02:10:13;30.45;;;12.63;;
70505;SDS011;58032;49.820;6.274;2023-02-15T02:12:40;32.38;;;12.45;;
70505;SDS011;58032;49.820;6.274;2023-02-15T02:15:08;32.67;;;12.43;;
70505;SDS011;58032;49.820;6.274;2023-02-15T02:18:00;32.45;;;13.32;;
70505;SDS011;58032;49.820;6.274;2023-02-15T02:20:43;29.47;;;11.83;;
70505;SDS011;58032;49.820;6.274;2023-02-15T02:33:58;33.23;;;13.53;;
70505;SDS011;58032;49.820;6.274;2023-02-15T02:36:50;35.05;;;14.10;;
70505;SDS011;58032;49.820;6.274;2023-02-15T02:42:21;32.15;;;13.90;;
70505;SDS011;58032;49.820;6.274;2023-02-15T02:44:43;33.00;;;13.90;;
70505;SDS011;58032;49.820;6.274;2023-02-15T02:47:18;29.13;;;12.50;;
70505;SDS011;58032;49.820;6.274;2023-02-15T02:49:46;26.63;;;11.50;;
70505;SDS011;58032;49.820;6.274;2023-02-15T02:54:58;28.67;;;13.27;;
70505;SDS011;58032;49.820;6.274;2023-02-15T02:57:25;37.15;;;14.50;;
70505;SDS011;58032;49.820;6.274;2023-02-15T02:59:53;28.83;;;12.60;;
70505;SDS011;58032;49.820;6.274;2023-02-15T03:02:21;39.55;;;13.07;;
70505;SDS011;58032;49.820;6.274;2023-02-15T03:04:50;36.10;;;12.95;;
70505;SDS011;58032;49.820;6.274;2023-02-15T03:07:25;35.45;;;14.27;;
70505;SDS011;58032;49.820;6.274;2023-02-15T03:09:54;38.97;;;13.80;;
70505;SDS011;58032;49.820;6.274;2023-02-15T03:12:25;49.53;;;15.10;;
70505;SDS011;58032;49.820;6.274;2023-02-15T03:17:31;92.28;;;15.05;;
70505;SDS011;58032;49.820;6.274;2023-02-15T03:20:00;111.95;;;17.58;;
70505;SDS011;58032;49.820;6.274;2023-02-15T03:22:51;98.47;;;15.93;;
70505;SDS011;58032;49.820;6.274;2023-02-15T03:25:20;81.40;;;15.20;;
70505;SDS011;58032;49.820;6.274;2023-02-15T03:27:49;117.90;;;16.20;;
70505;SDS011;58032;49.820;6.274;2023-02-15T03:30:19;82.57;;;14.18;;
70505;SDS011;58032;49.820;6.274;2023-02-15T03:32:46;44.17;;;12.15;;
70505;SDS011;58032;49.820;6.274;2023-02-15T03:35:14;54.33;;;13.18;;
70505;SDS011;58032;49.820;6.274;2023-02-15T03:37:47;34.40;;;13.43;;
70505;SDS011;58032;49.820;6.274;2023-02-15T03:40:19;68.35;;;15.13;;
70505;SDS011;58032;49.820;6.274;2023-02-15T03:43:12;114.32;;;15.68;;
70505;SDS011;58032;49.820;6.274;2023-02-15T03:45:39;48.75;;;12.80;;
70505;SDS011;58032;49.820;6.274;2023-02-15T03:48:22;35.38;;;11.27;;
70505;SDS011;58032;49.820;6.274;2023-02-15T03:50:49;26.87;;;11.53;;
70505;SDS011;58032;49.820;6.274;2023-02-15T03:53:35;53.03;;;12.38;;
70505;SDS011;58032;49.820;6.274;2023-02-15T03:56:03;29.52;;;13.50;;
70505;SDS011;58032;49.820;6.274;2023-02-15T03:58:30;30.35;;;12.68;;
70505;SDS011;58032;49.820;6.274;2023-02-15T04:01:34;37.45;;;14.57;;
70505;SDS011;58032;49.820;6.274;2023-02-15T04:04:22;26.33;;;11.47;;
70505;SDS011;58032;49.820;6.274;2023-02-15T04:06:51;27.45;;;11.45;;
70505;SDS011;58032;49.820;6.274;2023-02-15T04:09:17;48.97;;;12.95;;
70505;SDS011;58032;49.820;6.274;2023-02-15T04:12:03;35.53;;;14.10;;
70505;SDS011;58032;49.820;6.274;2023-02-15T04:14:30;36.88;;;15.00;;
70505;SDS011;58032;49.820;6.274;2023-02-15T04:17:15;34.83;;;13.23;;
70505;SDS011;58032;49.820;6.274;2023-02-15T04:19:42;51.83;;;14.98;;
70505;SDS011;58032;49.820;6.274;2023-02-15T04:22:27;54.25;;;14.52;;
70505;SDS011;58032;49.820;6.274;2023-02-15T04:25:13;40.90;;;13.93;;
70505;SDS011;58032;49.820;6.274;2023-02-15T04:27:41;43.72;;;14.27;;
70505;SDS011;58032;49.820;6.274;2023-02-15T04:30:08;40.87;;;13.33;;
70505;SDS011;58032;49.820;6.274;2023-02-15T04:32:35;87.13;;;15.43;;
70505;SDS011;58032;49.820;6.274;2023-02-15T04:35:02;167.95;;;15.27;;
70505;SDS011;58032;49.820;6.274;2023-02-15T04:37:29;81.65;;;16.15;;
70505;SDS011;58032;49.820;6.274;2023-02-15T04:39:55;95.03;;;15.55;;
70505;SDS011;58032;49.820;6.274;2023-02-15T04:42:25;86.53;;;14.23;;
70505;SDS011;58032;49.820;6.274;2023-02-15T04:44:52;43.92;;;13.13;;
70505;SDS011;58032;49.820;6.274;2023-02-15T04:47:18;74.20;;;17.45;;
70505;SDS011;58032;49.820;6.274;2023-02-15T04:49:45;85.60;;;15.38;;
70505;SDS011;58032;49.820;6.274;2023-02-15T04:52:12;89.78;;;15.38;;
70505;SDS011;58032;49.820;6.274;2023-02-15T04:54:39;60.27;;;14.37;;
70505;SDS011;58032;49.820;6.274;2023-02-15T04:57:06;203.30;;;16.75;;
70505;SDS011;58032;49.820;6.274;2023-02-15T04:59:32;49.85;;;13.18;;
70505;SDS011;58032;49.820;6.274;2023-02-15T05:01:59;36.63;;;12.45;;
70505;SDS011;58032;49.820;6.274;2023-02-15T05:04:26;37.17;;;12.52;;
70505;SDS011;58032;49.820;6.274;2023-02-15T05:06:52;91.97;;;13.90;;
70505;SDS011;58032;49.820;6.274;2023-02-15T05:09:19;86.78;;;14.10;;
70505;SDS011;58032;49.820;6.274;2023-02-15T05:11:46;65.68;;;14.00;;
70505;SDS011;58032;49.820;6.274;2023-02-15T05:14:13;56.22;;;14.30;;
70505;SDS011;58032;49.820;6.274;2023-02-15T05:16:39;51.97;;;13.05;;
70505;SDS011;58032;49.820;6.274;2023-02-15T05:19:06;64.53;;;13.17;;
70505;SDS011;58032;49.820;6.274;2023-02-15T05:21:33;82.45;;;12.43;;
70505;SDS011;58032;49.820;6.274;2023-02-15T05:24:00;130.18;;;15.32;;
70505;SDS011;58032;49.820;6.274;2023-02-15T05:26:27;41.17;;;12.48;;
70505;SDS011;58032;49.820;6.274;2023-02-15T05:29:12;84.65;;;13.23;;
70505;SDS011;58032;49.820;6.274;2023-02-15T05:31:39;79.00;;;13.43;;
70505;SDS011;58032;49.820;6.274;2023-02-15T05:34:06;90.18;;;12.98;;
70505;SDS011;58032;49.820;6.274;2023-02-15T05:36:32;63.22;;;13.98;;
70505;SDS011;58032;49.820;6.274;2023-02-15T05:38:59;107.53;;;13.88;;
70505;SDS011;58032;49.820;6.274;2023-02-15T05:41:26;87.70;;;14.43;;
70505;SDS011;58032;49.820;6.274;2023-02-15T05:43:54;87.83;;;15.10;;
70505;SDS011;58032;49.820;6.274;2023-02-15T05:46:21;74.32;;;13.85;;
70505;SDS011;58032;49.820;6.274;2023-02-15T05:48:48;143.80;;;14.68;;
70505;SDS011;58032;49.820;6.274;2023-02-15T05:51:14;142.45;;;15.82;;
70505;SDS011;58032;49.820;6.274;2023-02-15T05:53:42;105.57;;;15.23;;
70505;SDS011;58032;49.820;6.274;2023-02-15T05:56:09;145.47;;;16.07;;
70505;SDS011;58032;49.820;6.274;2023-02-15T05:58:37;97.03;;;15.15;;
70505;SDS011;58032;49.820;6.274;2023-02-15T06:01:08;215.57;;;17.38;;
70505;SDS011;58032;49.820;6.274;2023-02-15T06:03:35;164.00;;;16.98;;
70505;SDS011;58032;49.820;6.274;2023-02-15T06:06:02;100.75;;;14.93;;
70505;SDS011;58032;49.820;6.274;2023-02-15T06:08:31;201.47;;;16.87;;
70505;SDS011;58032;49.820;6.274;2023-02-15T06:10:57;109.35;;;14.82;;
70505;SDS011;58032;49.820;6.274;2023-02-15T06:13:24;130.73;;;15.65;;
70505;SDS011;58032;49.820;6.274;2023-02-15T06:15:51;95.20;;;14.18;;
70505;SDS011;58032;49.820;6.274;2023-02-15T06:18:18;67.97;;;13.73;;
70505;SDS011;58032;49.820;6.274;2023-02-15T06:20:45;42.50;;;13.30;;
70505;SDS011;58032;49.820;6.274;2023-02-15T06:23:12;54.05;;;13.95;;
70505;SDS011;58032;49.820;6.274;2023-02-15T06:25:39;68.00;;;16.27;;
70505;SDS011;58032;49.820;6.274;2023-02-15T06:28:05;39.63;;;12.82;;
70505;SDS011;58032;49.820;6.274;2023-02-15T06:30:32;58.75;;;15.07;;
70505;SDS011;58032;49.820;6.274;2023-02-15T06:32:59;65.47;;;14.63;;
70505;SDS011;58032;49.820;6.274;2023-02-15T06:35:25;73.95;;;13.15;;
70505;SDS011;58032;49.820;6.274;2023-02-15T06:37:52;85.78;;;13.02;;
70505;SDS011;58032;49.820;6.274;2023-02-15T06:40:19;74.60;;;13.20;;
70505;SDS011;58032;49.820;6.274;2023-02-15T06:42:46;155.82;;;14.70;;
70505;SDS011;58032;49.820;6.274;2023-02-15T06:45:13;81.57;;;13.00;;
70505;SDS011;58032;49.820;6.274;2023-02-15T06:47:40;125.95;;;14.85;;
70505;SDS011;58032;49.820;6.274;2023-02-15T06:50:06;106.90;;;12.80;;
70505;SDS011;58032;49.820;6.274;2023-02-15T06:52:33;301.20;;;18.92;;
70505;SDS011;58032;49.820;6.274;2023-02-15T06:55:00;216.73;;;17.42;;
70505;SDS011;58032;49.820;6.274;2023-02-15T06:57:27;341.67;;;16.27;;
70505;SDS011;58032;49.820;6.274;2023-02-15T06:59:54;488.08;;;19.90;;
70505;SDS011;58032;49.820;6.274;2023-02-15T07:02:20;451.42;;;22.98;;
70505;SDS011;58032;49.820;6.274;2023-02-15T07:04:47;263.75;;;18.05;;
70505;SDS011;58032;49.820;6.274;2023-02-15T07:07:14;300.25;;;20.08;;
70505;SDS011;58032;49.820;6.274;2023-02-15T07:09:42;225.13;;;15.73;;
70505;SDS011;58032;49.820;6.274;2023-02-15T07:12:08;217.82;;;17.15;;
70505;SDS011;58032;49.820;6.274;2023-02-15T07:14:54;165.88;;;14.75;;
70505;SDS011;58032;49.820;6.274;2023-02-15T07:17:21;88.55;;;12.30;;
70505;SDS011;58032;49.820;6.274;2023-02-15T07:20:04;51.67;;;12.43;;
70505;SDS011;58032;49.820;6.274;2023-02-15T07:22:31;73.40;;;12.43;;
70505;SDS011;58032;49.820;6.274;2023-02-15T07:25:00;86.80;;;13.32;;
70505;SDS011;58032;49.820;6.274;2023-02-15T07:27:27;257.60;;;17.90;;
70505;SDS011;58032;49.820;6.274;2023-02-15T07:29:54;250.43;;;16.08;;
70505;SDS011;58032;49.820;6.274;2023-02-15T07:32:20;164.88;;;12.65;;
70505;SDS011;58032;49.820;6.274;2023-02-15T07:34:47;140.73;;;11.23;;
70505;SDS011;58032;49.820;6.274;2023-02-15T07:37:14;190.77;;;13.48;;
70505;SDS011;58032;49.820;6.274;2023-02-15T07:39:40;162.63;;;13.20;;
70505;SDS011;58032;49.820;6.274;2023-02-15T07:42:07;167.90;;;14.48;;
70505;SDS011;58032;49.820;6.274;2023-02-15T07:44:35;115.18;;;11.88;;
70505;SDS011;58032;49.820;6.274;2023-02-15T07:47:02;242.30;;;14.27;;
70505;SDS011;58032;49.820;6.274;2023-02-15T07:49:28;274.52;;;17.33;;
70505;SDS011;58032;49.820;6.274;2023-02-15T07:51:55;258.55;;;15.57;;
70505;SDS011;58032;49.820;6.274;2023-02-15T07:54:22;182.70;;;13.90;;
70505;SDS011;58032;49.820;6.274;2023-02-15T07:56:48;175.63;;;14.73;;
70505;SDS011;58032;49.820;6.274;2023-02-15T07:59:15;210.07;;;13.03;;
70505;SDS011;58032;49.820;6.274;2023-02-15T08:01:42;82.88;;;11.93;;
70505;SDS011;58032;49.820;6.274;2023-02-15T08:04:08;216.52;;;15.57;;
70505;SDS011;58032;49.820;6.274;2023-02-15T08:06:37;331.70;;;17.58;;
70505;SDS011;58032;49.820;6.274;2023-02-15T08:09:05;179.90;;;15.75;;
70505;SDS011;58032;49.820;6.274;2023-02-15T08:11:32;106.87;;;12.47;;
70505;SDS011;58032;49.820;6.274;2023-02-15T08:14:09;201.40;;;12.82;;
70505;SDS011;58032;49.820;6.274;2023-02-15T08:21:30;108.25;;;10.18;;
70505;SDS011;58032;49.820;6.274;2023-02-15T08:23:58;145.47;;;12.17;;
70505;SDS011;58032;49.820;6.274;2023-02-15T08:26:26;176.95;;;11.73;;
70505;SDS011;58032;49.820;6.274;2023-02-15T08:28:53;60.15;;;10.38;;
70505;SDS011;58032;49.820;6.274;2023-02-15T08:31:20;37.72;;;8.77;;
70505;SDS011;58032;49.820;6.274;2023-02-15T08:33:48;80.35;;;8.43;;
70505;SDS011;58032;49.820;6.274;2023-02-15T08:36:16;72.20;;;10.50;;
70505;SDS011;58032;49.820;6.274;2023-02-15T08:38:43;74.80;;;9.63;;
70505;SDS011;58032;49.820;6.274;2023-02-15T08:43:36;40.28;;;9.38;;
70505;SDS011;58032;49.820;6.274;2023-02-15T08:46:04;79.63;;;10.48;;
70505;SDS011;58032;49.820;6.274;2023-02-15T08:48:31;142.73;;;10.80;;
70505;SDS011;58032;49.820;6.274;2023-02-15T08:50:57;112.00;;;11.68;;
70505;SDS011;58032;49.820;6.274;2023-02-15T08:53:24;55.60;;;9.43;;
70505;SDS011;58032;49.820;6.274;2023-02-15T08:55:57;46.95;;;8.52;;
70505;SDS011;58032;49.820;6.274;2023-02-15T08:58:24;78.45;;;11.38;;
70505;SDS011;58032;49.820;6.274;2023-02-15T09:00:51;59.93;;;9.30;;
70505;SDS011;58032;49.820;6.274;2023-02-15T09:03:18;35.55;;;9.35;;
70505;SDS011;58032;49.820;6.274;2023-02-15T09:05:45;66.15;;;9.88;;
70505;SDS011;58032;49.820;6.274;2023-02-15T09:08:11;32.30;;;8.75;;
70505;SDS011;58032;49.820;6.274;2023-02-15T09:10:38;39.65;;;10.00;;
70505;SDS011;58032;49.820;6.274;2023-02-15T09:13:05;31.40;;;8.80;;
70505;SDS011;58032;49.820;6.274;2023-02-15T09:15:31;20.38;;;8.32;;
70505;SDS011;58032;49.820;6.274;2023-02-15T09:17:58;52.47;;;12.45;;
70505;SDS011;58032;49.820;6.274;2023-02-15T09:20:34;46.63;;;9.98;;
70505;SDS011;58032;49.820;6.274;2023-02-15T09:23:01;42.63;;;9.65;;
70505;SDS011;58032;49.820;6.274;2023-02-15T09:25:28;25.27;;;9.00;;
70505;SDS011;58032;49.820;6.274;2023-02-15T09:27:55;19.80;;;9.15;;
70505;SDS011;58032;49.820;6.274;2023-02-15T09:30:21;17.75;;;8.52;;
70505;SDS011;58032;49.820;6.274;2023-02-15T09:32:48;18.50;;;9.13;;
70505;SDS011;58032;49.820;6.274;2023-02-15T09:35:16;28.83;;;8.90;;
70505;SDS011;58032;49.820;6.274;2023-02-15T09:37:43;18.30;;;8.77;;
70505;SDS011;58032;49.820;6.274;2023-02-15T09:40:11;24.48;;;10.20;;
70505;SDS011;58032;49.820;6.274;2023-02-15T09:45:23;21.30;;;9.35;;
70505;SDS011;58032;49.820;6.274;2023-02-15T10:00:59;21.90;;;9.90;;
70505;SDS011;58032;49.820;6.274;2023-02-15T10:08:53;22.20;;;9.43;;
70505;SDS011;58032;49.820;6.274;2023-02-15T10:19:44;22.48;;;9.05;;
70505;SDS011;58032;49.820;6.274;2023-02-15T10:24:58;19.65;;;9.68;;
70505;SDS011;58032;49.820;6.274;2023-02-15T10:27:31;22.10;;;9.00;;
70505;SDS011;58032;49.820;6.274;2023-02-15T10:30:08;27.20;;;11.50;;
70505;SDS011;58032;49.820;6.274;2023-02-15T10:32:38;22.05;;;9.63;;
70505;SDS011;58032;49.820;6.274;2023-02-15T10:35:16;22.92;;;9.70;;
70505;SDS011;58032;49.820;6.274;2023-02-15T10:50:51;18.83;;;7.22;;
70505;SDS011;58032;49.820;6.274;2023-02-15T10:53:22;23.40;;;8.82;;
70505;SDS011;58032;49.820;6.274;2023-02-15T10:58:39;21.58;;;8.57;;
70505;SDS011;58032;49.820;6.274;2023-02-15T11:03:48;22.58;;;8.38;;
70505;SDS011;58032;49.820;6.274;2023-02-15T11:06:22;24.65;;;8.98;;
70505;SDS011;58032;49.820;6.274;2023-02-15T11:08:50;18.63;;;7.43;;
70505;SDS011;58032;49.820;6.274;2023-02-15T11:11:20;23.42;;;9.85;;
70505;SDS011;58032;49.820;6.274;2023-02-15T11:13:50;22.83;;;8.73;;
70505;SDS011;58032;49.820;6.274;2023-02-15T11:16:20;23.63;;;8.73;;
70505;SDS011;58032;49.820;6.274;2023-02-15T11:18:50;23.98;;;7.97;;
70505;SDS011;58032;49.820;6.274;2023-02-15T11:21:26;20.53;;;8.53;;
70505;SDS011;58032;49.820;6.274;2023-02-15T11:23:53;25.25;;;10.15;;
70505;SDS011;58032;49.820;6.274;2023-02-15T11:26:24;24.83;;;9.43;;
70505;SDS011;58032;49.820;6.274;2023-02-15T11:28:57;22.48;;;8.75;;
70505;SDS011;58032;49.820;6.274;2023-02-15T11:31:26;22.20;;;8.65;;
70505;SDS011;58032;49.820;6.274;2023-02-15T11:34:03;27.07;;;10.07;;
70505;SDS011;58032;49.820;6.274;2023-02-15T11:36:32;26.42;;;9.98;;
70505;SDS011;58032;49.820;6.274;2023-02-15T11:39:18;27.38;;;11.00;;
70505;SDS011;58032;49.820;6.274;2023-02-15T11:41:50;26.27;;;9.98;;
70505;SDS011;58032;49.820;6.274;2023-02-15T11:44:25;26.05;;;9.82;;
70505;SDS011;58032;49.820;6.274;2023-02-15T11:46:53;19.33;;;7.43;;
70505;SDS011;58032;49.820;6.274;2023-02-15T11:49:21;30.48;;;11.57;;
70505;SDS011;58032;49.820;6.274;2023-02-15T11:51:49;27.13;;;10.88;;
70505;SDS011;58032;49.820;6.274;2023-02-15T11:54:21;28.17;;;11.60;;
70505;SDS011;58032;49.820;6.274;2023-02-15T11:56:48;31.08;;;11.95;;
70505;SDS011;58032;49.820;6.274;2023-02-15T11:59:24;29.13;;;10.93;;
70505;SDS011;58032;49.820;6.274;2023-02-15T12:01:53;28.95;;;10.40;;
70505;SDS011;58032;49.820;6.274;2023-02-15T12:07:02;26.67;;;9.75;;
70505;SDS011;58032;49.820;6.274;2023-02-15T12:10:05;26.35;;;9.70;;
70505;SDS011;58032;49.820;6.274;2023-02-15T12:12:28;29.87;;;11.10;;
70505;SDS011;58032;49.820;6.274;2023-02-15T12:14:56;26.00;;;10.35;;
70505;SDS011;58032;49.820;6.274;2023-02-15T12:17:24;25.35;;;10.60;;
70505;SDS011;58032;49.820;6.274;2023-02-15T12:19:52;29.17;;;12.07;;
70505;SDS011;58032;49.820;6.274;2023-02-15T12:22:28;29.77;;;10.73;;
70505;SDS011;58032;49.820;6.274;2023-02-15T12:24:56;29.27;;;10.57;;
70505;SDS011;58032;49.820;6.274;2023-02-15T12:27:28;27.52;;;10.55;;
70505;SDS011;58032;49.820;6.274;2023-02-15T12:30:00;28.63;;;11.43;;
70505;SDS011;58032;49.820;6.274;2023-02-15T12:32:36;26.55;;;9.85;;
70505;SDS011;58032;49.820;6.274;2023-02-15T12:35:13;31.92;;;11.77;;
70505;SDS011;58032;49.820;6.274;2023-02-15T12:37:40;25.47;;;9.80;;
70505;SDS011;58032;49.820;6.274;2023-02-15T12:40:19;32.45;;;12.05;;
70505;SDS011;58032;49.820;6.274;2023-02-15T12:42:46;29.20;;;11.40;;
70505;SDS011;58032;49.820;6.274;2023-02-15T12:45:26;28.05;;;9.90;;
70505;SDS011;58032;49.820;6.274;2023-02-15T12:50:36;26.43;;;10.93;;
70505;SDS011;58032;49.820;6.274;2023-02-15T12:53:07;24.60;;;10.20;;
70505;SDS011;58032;49.820;6.274;2023-02-15T12:55:34;33.08;;;11.90;;
70505;SDS011;58032;49.820;6.274;2023-02-15T12:58:08;29.25;;;11.52;;
70505;SDS011;58032;49.820;6.274;2023-02-15T13:00:35;31.30;;;12.48;;
70505;SDS011;58032;49.820;6.274;2023-02-15T13:03:03;27.47;;;10.60;;
70505;SDS011;58032;49.820;6.274;2023-02-15T13:07:58;29.88;;;12.70;;
70505;SDS011;58032;49.820;6.274;2023-02-15T13:10:26;23.75;;;10.63;;
70505;SDS011;58032;49.820;6.274;2023-02-15T13:12:55;30.77;;;12.82;;
70505;SDS011;58032;49.820;6.274;2023-02-15T13:17:59;29.38;;;11.80;;
70505;SDS011;58032;49.820;6.274;2023-02-15T13:20:27;30.55;;;11.48;;
70505;SDS011;58032;49.820;6.274;2023-02-15T13:22:57;27.00;;;11.70;;
70505;SDS011;58032;49.820;6.274;2023-02-15T13:25:25;27.85;;;12.05;;
70505;SDS011;58032;49.820;6.274;2023-02-15T13:27:54;29.07;;;12.07;;
70505;SDS011;58032;49.820;6.274;2023-02-15T13:30:24;34.17;;;12.80;;
70505;SDS011;58032;49.820;6.274;2023-02-15T13:32:52;27.70;;;11.70;;
70505;SDS011;58032;49.820;6.274;2023-02-15T13:35:21;28.67;;;12.13;;
70505;SDS011;58032;49.820;6.274;2023-02-15T13:50:30;30.13;;;12.18;;
70505;SDS011;58032;49.820;6.274;2023-02-15T13:53:10;29.87;;;12.40;;
70505;SDS011;58032;49.820;6.274;2023-02-15T14:00:47;27.58;;;12.43;;
70505;SDS011;58032;49.820;6.274;2023-02-15T14:03:24;28.92;;;11.85;;
70505;SDS011;58032;49.820;6.274;2023-02-15T14:08:47;34.40;;;12.70;;
70505;SDS011;58032;49.820;6.274;2023-02-15T14:11:32;31.63;;;12.85;;
70505;SDS011;58032;49.820;6.274;2023-02-15T14:16:45;28.27;;;12.23;;
70505;SDS011;58032;49.820;6.274;2023-02-15T14:19:34;30.60;;;11.33;;
70505;SDS011;58032;49.820;6.274;2023-02-15T14:22:06;28.95;;;11.85;;
70505;SDS011;58032;49.820;6.274;2023-02-15T14:24:45;30.17;;;13.20;;
70505;SDS011;58032;49.820;6.274;2023-02-15T14:27:17;27.27;;;12.55;;
70505;SDS011;58032;49.820;6.274;2023-02-15T14:29:57;30.85;;;13.15;;
70505;SDS011;58032;49.820;6.274;2023-02-15T14:32:30;27.87;;;12.30;;
70505;SDS011;58032;49.820;6.274;2023-02-15T14:35:00;28.40;;;13.00;;
70505;SDS011;58032;49.820;6.274;2023-02-15T14:45:40;25.63;;;11.80;;
70505;SDS011;58032;49.820;6.274;2023-02-15T14:48:19;32.35;;;12.75;;
70505;SDS011;58032;49.820;6.274;2023-02-15T14:50:47;27.08;;;13.35;;
70505;SDS011;58032;49.820;6.274;2023-02-15T14:53:22;31.83;;;12.70;;
70505;SDS011;58032;49.820;6.274;2023-02-15T14:56:13;28.27;;;12.85;;
70505;SDS011;58032;49.820;6.274;2023-02-15T15:01:16;28.50;;;12.43;;
70505;SDS011;58032;49.820;6.274;2023-02-15T15:03:53;26.77;;;12.77;;
70505;SDS011;58032;49.820;6.274;2023-02-15T15:06:30;28.70;;;13.18;;
70505;SDS011;58032;49.820;6.274;2023-02-15T15:08:59;32.33;;;13.57;;
70505;SDS011;58032;49.820;6.274;2023-02-15T15:14:08;30.83;;;12.32;;
70505;SDS011;58032;49.820;6.274;2023-02-15T15:19:03;29.00;;;13.77;;
70505;SDS011;58032;49.820;6.274;2023-02-15T15:29:46;26.92;;;12.48;;
70505;SDS011;58032;49.820;6.274;2023-02-15T15:32:12;29.13;;;11.90;;
70505;SDS011;58032;49.820;6.274;2023-02-15T15:34:50;31.15;;;13.60;;
70505;SDS011;58032;49.820;6.274;2023-02-15T15:50:52;29.03;;;11.70;;
70505;SDS011;58032;49.820;6.274;2023-02-15T15:53:20;35.38;;;11.70;;
70505;SDS011;58032;49.820;6.274;2023-02-15T15:55:49;28.30;;;11.88;;
70505;SDS011;58032;49.820;6.274;2023-02-15T15:58:17;34.10;;;11.60;;
70505;SDS011;58032;49.820;6.274;2023-02-15T16:00:46;27.88;;;11.52;;
70505;SDS011;58032;49.820;6.274;2023-02-15T16:03:15;27.67;;;12.00;;
70505;SDS011;58032;49.820;6.274;2023-02-15T16:05:42;28.30;;;11.88;;
70505;SDS011;58032;49.820;6.274;2023-02-15T16:08:09;24.63;;;11.40;;
70505;SDS011;58032;49.820;6.274;2023-02-15T16:10:37;26.60;;;11.05;;
70505;SDS011;58032;49.820;6.274;2023-02-15T16:13:19;25.70;;;10.98;;
70505;SDS011;58032;49.820;6.274;2023-02-15T16:16:05;24.43;;;10.97;;
70505;SDS011;58032;49.820;6.274;2023-02-15T16:18:37;25.20;;;11.00;;
70505;SDS011;58032;49.820;6.274;2023-02-15T16:21:36;21.35;;;10.75;;
70505;SDS011;58032;49.820;6.274;2023-02-15T16:24:11;28.27;;;12.15;;
70505;SDS011;58032;49.820;6.274;2023-02-15T16:26:57;30.50;;;12.20;;
70505;SDS011;58032;49.820;6.274;2023-02-15T16:29:30;24.50;;;11.17;;
70505;SDS011;58032;49.820;6.274;2023-02-15T16:32:14;31.48;;;11.50;;
70505;SDS011;58032;49.820;6.274;2023-02-15T16:35:00;28.55;;;11.30;;
70505;SDS011;58032;49.820;6.274;2023-02-15T16:37:32;28.10;;;11.23;;
70505;SDS011;58032;49.820;6.274;2023-02-15T16:40:11;24.50;;;11.07;;
70505;SDS011;58032;49.820;6.274;2023-02-15T16:42:59;28.60;;;11.00;;
70505;SDS011;58032;49.820;6.274;2023-02-15T16:45:35;24.05;;;10.35;;
70505;SDS011;58032;49.820;6.274;2023-02-15T16:48:31;26.95;;;12.02;;
70505;SDS011;58032;49.820;6.274;2023-02-15T16:51:08;27.63;;;11.32;;
70505;SDS011;58032;49.820;6.274;2023-02-15T16:53:40;39.25;;;18.27;;
70505;SDS011;58032;49.820;6.274;2023-02-15T16:56:12;29.20;;;13.13;;
70505;SDS011;58032;49.820;6.274;2023-02-15T16:58:47;36.63;;;16.25;;
70505;SDS011;58032;49.820;6.274;2023-02-15T17:01:20;58.50;;;22.50;;
70505;SDS011;58032;49.820;6.274;2023-02-15T17:03:49;44.13;;;16.85;;
70505;SDS011;58032;49.820;6.274;2023-02-15T17:06:28;37.53;;;14.45;;
70505;SDS011;58032;49.820;6.274;2023-02-15T17:09:03;50.50;;;17.00;;